Latest Coastal Weather Observations for Kiama

IDN60701

Issued at 3:21 am EST Wednesday 28 June 2017 (issued every 10 minutes, with the page automatically refreshed every 10 minutes)

About coastal observations | Map of coastal stations | Coastal observations for NSW | Marine services | Other Formats
Station Details ID: 068242 Name: KIAMA (BOMBO HEADLAND) Lat: -34.65 Lon: 150.86 Height: 15.5 m
Data from the previous 72 hours. | See also: Recent months at Kiama
Date/Time
EST
Temp
°C
Wind Pressure Rain since
9am
mm
Weather Cloud Vis
km
Sea
Height
m
Swell
Dir  Spd
kts
Gust
kts
hPa Trend Height
m
Period
s
Dir
28/03:00am 13.5 NW 3 5 - - 0.0 - - - - - - -
28/02:30am 13.7 NW 5 7 - - 0.0 - - - - - - -
28/02:00am 13.6 WNW 5 6 - - 0.0 - - - - - - -
28/01:30am 14.1 WNW 5 6 - - 0.0 - - - - - - -
28/01:00am 13.7 WNW 5 5 - - 0.0 - - - - - - -
28/12:30am 13.6 W 6 7 - - 0.0 - - - - - - -
28/12:00am 13.5 WNW 5 7 - - 0.0 - - - - - - -
 
Date/Time
EST
Temp
°C
Wind Pressure Rain since
9am
mm
Weather Cloud Vis
km
Sea
Height
m
Swell
Dir  Spd
kts
Gust
kts
hPa Trend Height
m
Period
s
Dir
27/11:30pm 13.4 W 5 7 - - 0.0 - - - - - - -
27/11:00pm 13.3 WNW 5 6 - - 0.0 - - - - - - -
27/10:30pm 12.9 WNW 5 6 - - 0.0 - - - - - - -
27/10:00pm 12.7 W 5 6 - - 0.0 - - - - - - -
27/09:30pm 12.7 WNW 5 5 - - 0.0 - - - - - - -
27/09:00pm 12.8 WNW 5 5 - - 0.0 - - - - - - -
27/08:30pm 12.7 W 6 7 - - 0.0 - - - - - - -
27/08:00pm 13.2 WNW 4 5 - - 0.0 - - - - - - -
27/07:30pm 12.7 W 5 6 - - 0.0 - - - - - - -
27/07:00pm 12.6 W 5 8 - - 0.0 - - - - - - -
27/06:30pm 12.9 W 6 7 - - 0.0 - - - - - - -
27/06:00pm 13.1 W 4 5 - - 0.0 - - - - - - -
27/05:30pm 13.6 W 5 6 - - 0.0 - - - - - - -
27/05:00pm 13.9 W 3 3 - - 0.0 - - - - - - -
27/04:30pm 14.5 SSW 2 3 - - 0.0 - - - - - - -
27/04:00pm 14.9 SSW 3 5 - - 0.0 - - - - - - -
27/03:30pm 15.0 S 4 5 - - 0.0 - - - - - - -
27/03:00pm 15.2 SSE 4 7 - - 0.0 - - - - - - -
27/02:30pm 15.2 S 4 6 - - 0.0 - - - - - - -
27/02:00pm 15.3 SSE 5 7 - - 0.0 - - - - - - -
27/01:30pm 15.3 SSE 6 8 - - 0.0 - - - - - - -
27/01:00pm 15.2 S 7 9 - - 0.0 - - - - - - -
27/12:30pm 15.3 S 6 8 - - 0.0 - - - - - - -
27/12:00pm 14.9 SSW 7 11 - - 0.0 - - - - - - -
27/11:30am 15.2 S 7 10 - - 0.0 - - - - - - -
27/11:00am 15.4 S 7 9 - - 0.0 - - - - - - -
27/10:30am 15.3 SSW 8 11 - - 0.0 - - - - - - -
27/10:00am 15.2 SSW 9 11 - - 0.0 - - - - - - -
27/09:30am 14.9 SSW 8 11 - - 0.0 - - - - - - -
27/09:00am 14.4 SSW 10 13 - - 0.0 - - - - - - -
27/08:30am 13.6 SW 6 9 - - 0.0 - - - - - - -
27/08:00am 12.5 SW 7 10 - - 0.0 - - - - - - -
27/07:30am 12.0 SW 5 7 - - 0.0 - - - - - - -
27/07:00am 12.0 SW 6 8 - - 0.0 - - - - - - -
27/06:30am 12.0 SW 5 7 - - 0.0 - - - - - - -
27/06:00am 11.8 WSW 6 7 - - 0.0 - - - - - - -
27/05:30am 11.7 WSW 6 7 - - 0.0 - - - - - - -
27/05:00am 11.5 WSW 6 8 - - 0.0 - - - - - - -
27/04:30am 11.9 WSW 6 8 - - 0.0 - - - - - - -
27/04:00am 13.7 SSW 10 13 - - 0.0 - - - - - - -
27/03:30am 13.2 SSW 10 13 - - 0.0 - - - - - - -
27/03:00am 11.9 SW 5 7 - - 0.0 - - - - - - -
27/02:30am 11.5 W 6 8 - - 0.0 - - - - - - -
27/02:00am 11.5 W 6 7 - - 0.0 - - - - - - -
27/01:30am 11.5 WSW 5 7 - - 0.0 - - - - - - -
27/01:00am 11.4 W 6 8 - - 0.0 - - - - - - -
27/12:30am 11.5 W 5 6 - - 0.0 - - - - - - -
27/12:00am 11.5 WSW 3 4 - - 0.0 - - - - - - -
 
Date/Time
EST
Temp
°C
Wind Pressure Rain since
9am
mm
Weather Cloud Vis
km
Sea
Height
m
Swell
Dir  Spd
kts
Gust
kts
hPa Trend Height
m
Period
s
Dir
26/11:30pm 11.0 W 5 7 - - 0.0 - - - - - - -
26/11:00pm 11.0 WNW 6 8 - - 0.0 - - - - - - -
26/10:30pm 10.6 W 4 5 - - 0.0 - - - - - - -
26/10:00pm 10.9 W 4 5 - - 0.0 - - - - - - -
26/09:30pm 11.7 W 5 7 - - 0.0 - - - - - - -
26/09:00pm 11.6 W 5 7 - - 0.0 - - - - - - -
26/08:30pm 12.3 WNW 6 7 - - 0.0 - - - - - - -
26/08:00pm 12.6 WNW 6 7 - - 0.0 - - - - - - -
26/07:30pm 12.3 W 4 5 - - 0.0 - - - - - - -
26/07:00pm 12.7 W 5 6 - - 0.0 - - - - - - -
26/06:30pm 12.8 W 4 5 - - 0.0 - - - - - - -
26/06:00pm 13.3 W 4 4 - - 0.0 - - - - - - -
26/05:30pm 14.2 SW 6 7 - - 0.0 - - - - - - -
26/05:00pm 15.6 SE 6 10 - - 0.0 - - - - - - -
26/04:30pm 15.9 SSE 7 10 - - 0.0 - - - - - - -
26/04:00pm 16.4 SSE 7 9 - - 0.0 - - - - - - -
26/03:30pm 16.1 SSE 8 10 - - 0.0 - - - - - - -
26/03:00pm 16.4 SSE 8 11 - - 0.0 - - - - - - -
26/02:30pm 16.6 SSE 9 13 - - 0.0 - - - - - - -
26/02:00pm 16.8 S 8 10 - - 0.0 - - - - - - -
26/01:30pm 16.7 S 9 11 - - 0.0 - - - - - - -
26/01:00pm 16.7 SSW 10 13 - - 0.0 - - - - - - -
26/12:30pm 16.7 SSW 9 13 - - 0.0 - - - - - - -
26/12:00pm 17.0 WSW 5 8 - - 0.0 - - - - - - -
26/11:30am 16.6 WSW 6 8 - - 0.0 - - - - - - -
26/11:00am 16.8 W 7 9 - - 0.0 - - - - - - -
26/10:30am 16.1 WSW 7 13 - - 0.0 - - - - - - -
26/10:00am 16.0 WSW 5 7 - - 0.0 - - - - - - -
26/09:30am 14.7 W 7 9 - - 0.0 - - - - - - -
26/09:00am 14.2 NW 8 12 - - 0.0 - - - - - - -
26/08:30am 13.3 W 10 13 - - 0.0 - - - - - - -
26/08:00am 12.5 W 10 13 - - 0.0 - - - - - - -
26/07:30am 12.3 W 10 15 - - 0.0 - - - - - - -
26/07:00am 11.9 WNW 8 11 - - 0.0 - - - - - - -
26/06:30am 12.2 WNW 9 14 - - 0.0 - - - - - - -
26/06:00am 12.3 W 9 13 - - 0.0 - - - - - - -
26/05:30am 12.0 W 12 16 - - 0.0 - - - - - - -
26/05:00am 12.4 W 10 16 - - 0.0 - - - - - - -
26/04:30am 12.3 WNW 7 10 - - 0.0 - - - - - - -
26/04:00am 12.2 WNW 7 9 - - 0.0 - - - - - - -
26/03:30am 12.8 W 12 17 - - 0.0 - - - - - - -
26/03:00am 12.6 W 7 11 - - 0.0 - - - - - - -
26/02:30am 13.3 WSW 15 23 - - 0.0 - - - - - - -
26/02:00am 13.8 WSW 17 30 - - 0.0 - - - - - - -
26/01:30am 13.9 WSW 15 25 - - 0.0 - - - - - - -
26/01:26am 13.6 WSW 15 25 - - 0.0 - - - - - - -
26/01:00am 13.0 W 9 18 - - 0.0 - - - - - - -
26/12:30am 11.4 NNW 5 8 - - 0.0 - - - - - - -
26/12:00am 11.5 WNW 4 5 - - 0.0 - - - - - - -
 
Date/Time
EST
Temp
°C
Wind Pressure Rain since
9am
mm
Weather Cloud Vis
km
Sea
Height
m
Swell
Dir  Spd
kts
Gust
kts
hPa Trend Height
m
Period
s
Dir
25/11:30pm 11.6 NNE 3 5 - - 0.0 - - - - - - -
25/11:00pm 11.9 NNE 3 5 - - 0.0 - - - - - - -
25/10:30pm 11.8 NW 3 4 - - 0.0 - - - - - - -
25/10:00pm 12.4 NW 5 6 - - 0.0 - - - - - - -
25/09:30pm 12.1 WNW 3 4 - - 0.0 - - - - - - -
25/09:00pm 12.3 WNW 4 9 - - 0.0 - - - - - - -
25/08:30pm 12.9 NW 5 9 - - 0.0 - - - - - - -
25/08:00pm 13.3 NW 5 11 - - 0.0 - - - - - - -
25/07:30pm 13.4 NW 4 9 - - 0.0 - - - - - - -
25/07:00pm 13.5 WNW 4 8 - - 0.0 - - - - - - -
25/06:30pm 14.0 W 6 12 - - 0.0 - - - - - - -
25/06:00pm 14.1 WNW 5 11 - - 0.0 - - - - - - -
25/05:30pm 14.6 WNW 8 12 - - 0.0 - - - - - - -
25/05:00pm 14.7 WNW 6 10 - - 0.0 - - - - - - -
25/04:30pm 15.6 W 7 11 - - 0.0 - - - - - - -
25/04:00pm 16.5 W 12 18 - - 0.0 - - - - - - -
25/03:30pm 17.1 SW 8 15 - - 0.0 - - - - - - -
25/03:00pm 17.5 SW 4 6 - - 0.0 - - - - - - -
25/02:30pm 17.1 SW 9 15 - - 0.0 - - - - - - -
25/02:00pm 16.6 SW 12 18 - - 0.0 - - - - - - -
25/01:30pm 16.4 WSW 14 25 - - 0.0 - - - - - - -
25/01:00pm 16.2 W 10 16 - - 0.0 - - - - - - -
25/12:30pm 15.6 WSW 10 18 - - 0.0 - - - - - - -
25/12:00pm 15.8 W 8 17 - - 0.0 - - - - - - -
25/11:30am 15.7 W 4 10 - - 0.0 - - - - - - -
25/11:00am 15.5 NNW 8 18 - - 0.0 - - - - - - -
25/10:30am 14.7 W 9 16 - - 0.0 - - - - - - -
25/10:00am 13.9 W 12 18 - - 0.0 - - - - - - -
25/09:30am 13.1 W 12 17 - - 0.0 - - - - - - -
25/09:00am 12.4 W 14 19 - - 0.0 - - - - - - -
25/08:30am 11.8 W 13 20 - - 0.0 - - - - - - -
25/08:00am 11.0 NW 6 11 - - 0.0 - - - - - - -
25/07:30am 10.1 N 4 8 - - 0.0 - - - - - - -
25/07:00am 9.8 NW 4 8 - - 0.0 - - - - - - -
25/06:30am 9.9 WNW 6 11 - - 0.0 - - - - - - -
25/06:00am 10.0 WNW 5 9 - - 0.0 - - - - - - -
25/05:30am 9.0 NW 5 8 - - 0.0 - - - - - - -
25/05:00am 9.6 WNW 4 8 - - 0.0 - - - - - - -
25/04:30am 9.4 WNW 2 4 - - 0.0 - - - - - - -
25/04:00am 10.2 W 4 6 - - 0.0 - - - - - - -
25/03:30am 10.3 WNW 5 6 - - 0.0 - - - - - - -

Other Formats:

Comma delimited format used in spreadsheet applications
http://www.bom.gov.au/fwo/IDN60701/IDN60701.95749.axf

JavaScript Object Notation format (JSON) in row-major order
http://www.bom.gov.au/fwo/IDN60701/IDN60701.95749.json